createdAt,value
2023-02-02T00:04:03.817Z,21.4
2023-02-02T00:09:26.173Z,21.3
2023-02-02T00:14:48.785Z,21
2023-02-02T00:20:12.221Z,21.8
2023-02-02T00:25:34.559Z,22.5
2023-02-02T00:30:57.960Z,22.3
2023-02-02T00:36:19.845Z,21.7
2023-02-02T00:41:42.602Z,21.4
2023-02-02T00:47:05.113Z,21.3
2023-02-02T00:52:27.158Z,21.1
2023-02-02T00:57:49.877Z,21.3
2023-02-02T01:03:13.194Z,22.1
2023-02-02T01:08:35.097Z,22.7
2023-02-02T01:13:56.947Z,22.1
2023-02-02T01:19:19.987Z,21.6
2023-02-02T01:24:42.390Z,21.3
2023-02-02T01:34:56.119Z,21
2023-02-02T01:40:18.464Z,21.4
2023-02-02T01:45:25.827Z,21.7
2023-02-02T01:50:48.372Z,21.8
2023-02-02T01:56:10.765Z,22.3
2023-02-02T02:01:16.879Z,22.3
2023-02-02T02:06:39.831Z,21.7
2023-02-02T02:12:01.582Z,21.3
2023-02-02T02:17:23.744Z,21
2023-02-02T02:22:45.556Z,20.9
2023-02-02T02:27:52.869Z,21.1
2023-02-02T02:33:15.503Z,21.8
2023-02-02T02:38:37.486Z,22.3
2023-02-02T02:43:59.606Z,22.1
2023-02-02T02:49:07.474Z,21.5
2023-02-02T02:54:29.864Z,21.2
2023-02-02T02:59:52.112Z,20.9
2023-02-02T03:05:15.043Z,20.8
2023-02-02T03:15:44.780Z,21.8
2023-02-02T03:20:51.973Z,22.4
2023-02-02T03:26:14.966Z,22
2023-02-02T03:31:06.704Z,21.5
2023-02-02T03:36:29.473Z,21.1
2023-02-02T03:41:52.234Z,20.9
2023-02-02T03:46:44.372Z,20.7
2023-02-02T03:52:06.538Z,20.8
2023-02-02T03:57:29.557Z,21.7
2023-02-02T04:02:52.139Z,22.2
2023-02-02T04:07:43.325Z,22.2
2023-02-02T04:12:50.100Z,21.6
2023-02-02T04:18:13.085Z,21.2
2023-02-02T04:23:35.977Z,20.8
2023-02-02T04:28:58.924Z,20.7
2023-02-02T04:34:06.065Z,20.6
2023-02-02T04:39:28.199Z,21.4
2023-02-02T04:44:50.929Z,20.9
2023-02-02T04:50:13.928Z,21.6
2023-02-02T04:55:05.037Z,22.1
2023-02-02T04:59:59.745Z,22.3
2023-02-02T05:05:06.755Z,21.6
2023-02-02T05:15:38.539Z,20.8
2023-02-02T05:20:45.925Z,20.8
2023-02-02T05:26:08.278Z,21.9
2023-02-02T05:31:46.891Z,22.8
2023-02-02T05:37:09.808Z,22.7
2023-02-02T05:42:16.214Z,21.8
2023-02-02T05:47:24.458Z,21.3
2023-02-02T05:53:02.377Z,20.3
2023-02-02T05:58:40.557Z,19.9
2023-02-02T06:04:19.443Z,20.1
2023-02-02T06:09:57.429Z,21
2023-02-02T06:15:35.230Z,21.6
2023-02-02T06:21:13.740Z,21.8
2023-02-02T06:26:36.326Z,21.1
2023-02-02T06:32:15.877Z,20.6
2023-02-02T06:37:54.773Z,20.6
2023-02-02T06:43:44.728Z,21.3
2023-02-02T06:49:07.518Z,22.4
2023-02-02T06:54:49.060Z,23.1
2023-02-02T07:00:26.566Z,22.2
2023-02-02T07:06:06.151Z,22.1
2023-02-02T07:12:58.157Z,23
2023-02-02T07:18:35.618Z,22.4
2023-02-02T07:23:58.046Z,21.9
2023-02-02T07:29:05.958Z,21.8
2023-02-02T07:33:58.267Z,21.8
2023-02-02T07:39:06.205Z,23.2
2023-02-02T07:44:30.145Z,24.1
2023-02-02T07:50:18.173Z,24.1
2023-02-02T07:56:04.765Z,22.7
2023-02-02T08:01:30.372Z,22.3
2023-02-02T08:06:37.764Z,22.1
2023-02-02T08:11:59.985Z,22.7
2023-02-02T08:17:39.427Z,23.7
2023-02-02T08:23:17.868Z,23.9
2023-02-02T08:28:40.684Z,23
2023-02-02T08:34:19.680Z,22.4
2023-02-02T08:39:58.171Z,22
2023-02-02T08:47:08.992Z,21.8
2023-02-02T08:53:00.102Z,22.5
2023-02-02T08:58:37.297Z,23.7
2023-02-02T09:04:16.292Z,23.9
2023-02-02T09:09:55.881Z,22.8
2023-02-02T09:15:35.905Z,22.1
2023-02-02T09:21:14.908Z,21.6
2023-02-02T09:26:53.729Z,21.4
2023-02-02T09:37:56.176Z,21.9
2023-02-02T09:43:36.936Z,22.6
2023-02-02T09:49:14.852Z,21.9
2023-02-02T09:55:02.822Z,21.4
2023-02-02T10:00:57.463Z,21
2023-02-02T10:06:36.216Z,20.8
2023-02-02T10:12:24.484Z,21.1
2023-02-02T10:18:05.795Z,22.4
2023-02-02T10:23:29.207Z,22.6
2023-02-02T10:29:10.050Z,21.8
2023-02-02T10:35:12.443Z,21.4
2023-02-02T10:40:51.015Z,21.3
2023-02-02T10:46:29.184Z,22.5
2023-02-02T10:52:09.669Z,22.4
2023-02-02T10:57:59.861Z,22.3
2023-02-02T11:03:51.851Z,21.9
2023-02-02T11:09:31.004Z,22.8
2023-02-02T11:15:19.326Z,23.7
2023-02-02T11:20:50.452Z,23.1
2023-02-02T11:26:29.325Z,22.6
2023-02-02T11:39:27.853Z,21
2023-02-02T11:45:06.335Z,20.8
2023-02-02T11:50:48.222Z,22.2
2023-02-02T11:56:31.096Z,22.8
2023-02-02T12:02:10.665Z,21.9
2023-02-02T12:07:52.176Z,21.4
2023-02-02T12:13:30.227Z,20.9
2023-02-02T12:18:55.568Z,22.2
2023-02-02T20:27:28.852Z,24.6
2023-02-02T20:33:42.156Z,25.1
